createdAt,value
2022-08-26T00:00:59.123Z,3.10
2022-08-26T00:03:25.679Z,2.50
2022-08-26T00:05:52.195Z,2.40
2022-08-26T00:08:19.971Z,2.60
2022-08-26T00:10:46.591Z,2.60
2022-08-26T00:13:13.454Z,2.60
2022-08-26T00:15:40.749Z,2.90
2022-08-26T00:18:16.771Z,2.70
2022-08-26T00:20:49.020Z,2.57
2022-08-26T00:23:15.670Z,2.87
2022-08-26T00:25:44.926Z,3.03
2022-08-26T00:28:11.893Z,3.03
2022-08-26T00:30:38.883Z,2.97
2022-08-26T00:33:05.658Z,2.80
2022-08-26T00:35:32.686Z,2.80
2022-08-26T00:38:00.828Z,2.70
2022-08-26T00:40:34.271Z,2.67
2022-08-26T00:43:02.119Z,2.90
2022-08-26T00:45:51.501Z,3.00
2022-08-26T00:48:20.394Z,3.30
2022-08-26T00:50:54.989Z,2.90
2022-08-26T00:53:25.995Z,2.50
2022-08-26T00:56:04.426Z,3.10
2022-08-26T00:58:32.725Z,4.33
2022-08-26T01:01:00.079Z,3.97
2022-08-26T01:03:28.022Z,3.40
2022-08-26T01:05:57.369Z,3.20
2022-08-26T01:08:24.720Z,3.03
2022-08-26T01:10:52.148Z,3.20
2022-08-26T01:13:23.927Z,3.10
2022-08-26T01:15:56.392Z,2.80
2022-08-26T01:18:23.428Z,2.93
2022-08-26T01:21:16.654Z,3.53
2022-08-26T01:23:48.358Z,2.80
2022-08-26T01:26:36.136Z,2.93
2022-08-26T01:29:04.762Z,3.60
2022-08-26T01:31:39.088Z,2.90
2022-08-26T01:34:10.836Z,3.20
2022-08-26T01:36:39.039Z,3.20
2022-08-26T01:39:07.243Z,2.73
2022-08-26T01:41:34.779Z,3.10
2022-08-26T01:44:02.094Z,3.10
2022-08-26T01:46:30.540Z,2.97
2022-08-26T01:48:59.094Z,2.90
2022-08-26T01:51:26.617Z,3.13
2022-08-26T01:53:53.861Z,3.50
2022-08-26T01:56:22.102Z,3.07
2022-08-26T01:58:52.206Z,2.90
2022-08-26T02:01:19.619Z,3.10
2022-08-26T02:03:56.305Z,3.67
2022-08-26T02:06:23.015Z,3.43
2022-08-26T02:08:52.728Z,3.20
2022-08-26T02:13:52.679Z,3.53
2022-08-26T02:16:24.061Z,3.30
2022-08-26T02:18:53.346Z,3.37
2022-08-26T02:21:20.059Z,3.60
2022-08-26T02:23:46.685Z,3.60
2022-08-26T02:26:17.878Z,3.63
2022-08-26T02:29:07.698Z,3.47
2022-08-26T02:31:34.565Z,3.30
2022-08-26T02:34:13.656Z,3.30
2022-08-26T02:36:42.026Z,3.27
2022-08-26T02:39:09.120Z,3.40
2022-08-26T02:41:36.162Z,3.30
2022-08-26T02:44:11.809Z,3.23
2022-08-26T02:46:38.735Z,3.30
2022-08-26T02:49:06.681Z,3.40
2022-08-26T02:51:33.216Z,3.30
2022-08-26T02:53:59.851Z,2.90
2022-08-26T02:56:28.712Z,3.13
2022-08-26T02:58:55.579Z,3.13
2022-08-26T03:01:24.797Z,3.50
2022-08-26T03:03:52.002Z,3.40
2022-08-26T03:06:18.872Z,3.90
2022-08-26T03:08:45.909Z,3.60
2022-08-26T03:11:13.788Z,3.40
2022-08-26T03:13:41.817Z,3.40
2022-08-26T03:16:08.753Z,3.90
2022-08-26T03:18:35.945Z,3.13
2022-08-26T03:21:12.063Z,3.10
2022-08-26T03:23:39.969Z,3.40
2022-08-26T03:26:07.637Z,3.40
2022-08-26T03:28:38.321Z,3.50
2022-08-26T03:31:05.020Z,3.10
2022-08-26T03:33:31.502Z,3.67
2022-08-26T03:35:58.340Z,3.57
2022-08-26T03:38:24.851Z,3.40
2022-08-26T03:40:51.542Z,2.97
2022-08-26T03:43:19.221Z,3.47
2022-08-26T03:45:45.986Z,3.30
2022-08-26T03:48:12.721Z,3.50
2022-08-26T03:50:39.362Z,3.33
2022-08-26T03:53:07.512Z,3.30
2022-08-26T03:55:39.532Z,3.27
2022-08-26T03:58:06.176Z,3.47
2022-08-26T04:00:32.706Z,3.30
2022-08-26T04:03:01.172Z,3.17
2022-08-26T04:05:28.430Z,3.30
2022-08-26T04:07:55.007Z,3.40
2022-08-26T04:10:22.430Z,3.60
2022-08-26T04:12:58.849Z,3.40
2022-08-26T04:15:26.361Z,3.40
2022-08-26T04:17:53.208Z,3.30
2022-08-26T04:20:20.838Z,3.40
2022-08-26T04:22:47.347Z,3.70
2022-08-26T04:25:14.077Z,3.50
2022-08-26T04:27:40.777Z,3.80
2022-08-26T04:30:07.975Z,3.50
2022-08-26T04:32:35.487Z,3.50
2022-08-26T04:35:03.698Z,3.47
2022-08-26T04:37:31.195Z,3.70
2022-08-26T04:39:59.296Z,3.63
2022-08-26T04:42:26.435Z,3.70
2022-08-26T04:44:59.119Z,4.00
2022-08-26T04:47:29.185Z,3.50
2022-08-26T04:49:58.727Z,3.33
2022-08-26T04:52:25.295Z,3.20
2022-08-26T04:54:51.949Z,3.50
2022-08-26T04:57:19.015Z,3.80
2022-08-26T04:59:45.549Z,3.80
2022-08-26T05:02:12.645Z,3.50
2022-08-26T05:04:39.173Z,3.50
2022-08-26T05:07:05.680Z,3.20
2022-08-26T05:09:32.983Z,3.37
2022-08-26T05:11:59.502Z,3.33
2022-08-26T05:14:26.071Z,3.20
2022-08-26T05:16:52.573Z,3.17
2022-08-26T05:19:19.744Z,3.03
2022-08-26T05:21:48.053Z,2.97
2022-08-26T05:24:14.918Z,3.03
2022-08-26T05:26:41.697Z,3.03
2022-08-26T05:29:11.076Z,2.97
2022-08-26T05:31:37.679Z,2.80
2022-08-26T05:34:04.277Z,2.80
2022-08-26T05:36:32.720Z,2.80
2022-08-26T05:39:00.999Z,2.97
2022-08-26T05:41:34.248Z,3.07
2022-08-26T05:44:06.126Z,2.90
2022-08-26T05:46:35.877Z,2.83
2022-08-26T05:49:04.200Z,2.97
2022-08-26T05:51:31.110Z,2.90
2022-08-26T05:53:58.166Z,2.93
2022-08-26T05:56:30.339Z,3.43
2022-08-26T05:58:58.347Z,3.30
2022-08-26T06:01:26.456Z,3.70
2022-08-26T06:03:55.879Z,3.63
2022-08-26T06:06:27.318Z,2.87
2022-08-26T06:08:56.532Z,3.77
2022-08-26T06:11:24.457Z,3.57
2022-08-26T06:13:51.950Z,3.03
2022-08-26T06:16:19.688Z,3.93
2022-08-26T06:18:47.904Z,3.73
2022-08-26T06:21:19.537Z,3.30
2022-08-26T06:23:48.344Z,3.40
2022-08-26T06:26:17.119Z,3.00
2022-08-26T06:28:45.429Z,3.40
2022-08-26T06:31:12.797Z,2.97
2022-08-26T06:33:39.386Z,2.80
2022-08-26T06:36:06.303Z,3.00
2022-08-26T06:38:32.915Z,3.20
2022-08-26T06:41:00.081Z,3.60
2022-08-26T06:43:28.575Z,3.13
2022-08-26T06:46:04.271Z,3.13
2022-08-26T06:48:32.071Z,3.20
2022-08-26T06:51:08.966Z,3.23
2022-08-26T06:53:37.159Z,3.10
2022-08-26T06:56:05.855Z,3.27
2022-08-26T06:58:33.621Z,3.72
2022-08-26T07:01:03.744Z,3.27
2022-08-26T07:03:39.492Z,3.70
2022-08-26T07:06:06.558Z,3.57
2022-08-26T07:08:33.901Z,3.77
2022-08-26T07:11:05.065Z,3.63
2022-08-26T07:13:31.583Z,3.30
2022-08-26T07:15:58.235Z,3.73
2022-08-26T07:18:29.771Z,3.00
2022-08-26T07:20:56.484Z,2.63
2022-08-26T07:23:23.258Z,2.80
2022-08-26T07:25:50.785Z,2.13
2022-08-26T07:28:17.317Z,2.90
2022-08-26T07:30:43.856Z,2.93
2022-08-26T07:33:10.408Z,2.70
2022-08-26T07:35:37.496Z,2.50
2022-08-26T07:38:03.990Z,2.87
2022-08-26T07:40:32.155Z,2.70
2022-08-26T07:43:00.124Z,2.90
2022-08-26T07:45:27.631Z,2.60
2022-08-26T07:47:54.520Z,2.87
2022-08-26T07:50:21.314Z,2.60
2022-08-26T07:53:08.153Z,2.53
2022-08-26T07:55:37.320Z,2.90
2022-08-26T07:58:05.753Z,2.93
2022-08-26T08:00:33.436Z,3.30
2022-08-26T08:03:02.149Z,3.00
2022-08-26T08:05:33.417Z,3.30
2022-08-26T08:08:27.263Z,3.13
2022-08-26T08:10:48.867Z,2.97
2022-08-26T08:13:15.837Z,2.90
2022-08-26T08:15:42.466Z,3.00
2022-08-26T08:18:15.779Z,2.77
2022-08-26T08:20:47.674Z,2.83
2022-08-26T08:23:25.906Z,2.30
2022-08-26T08:26:01.104Z,2.30
2022-08-26T08:28:27.807Z,2.30
2022-08-26T08:30:54.374Z,2.40
2022-08-26T08:33:20.894Z,2.30
2022-08-26T08:35:48.156Z,2.50
2022-08-26T08:38:15.147Z,2.80
2022-08-26T08:40:44.553Z,2.93
2022-08-26T08:43:28.507Z,2.77
2022-08-26T08:46:07.382Z,2.70
2022-08-26T08:48:37.734Z,2.53
2022-08-26T08:51:10.916Z,2.50
2022-08-26T08:53:40.653Z,2.87
2022-08-26T08:56:07.085Z,2.40
2022-08-26T08:58:47.309Z,2.60
2022-08-26T09:01:42.559Z,3.00
2022-08-26T09:04:30.816Z,2.60
2022-08-26T09:07:00.453Z,2.78
2022-08-26T09:09:36.282Z,2.40
2022-08-26T09:12:04.933Z,2.50
2022-08-26T09:14:34.323Z,2.90
2022-08-26T09:17:25.539Z,2.60
2022-08-26T09:19:54.561Z,2.50
2022-08-26T09:22:35.467Z,2.72
2022-08-26T09:25:05.673Z,2.80
2022-08-26T09:27:44.232Z,2.43
2022-08-26T09:30:15.247Z,3.00
2022-08-26T09:32:42.303Z,2.50
2022-08-26T09:35:24.128Z,2.30
2022-08-26T09:40:34.520Z,2.40
2022-08-26T09:43:12.770Z,2.60
2022-08-26T09:45:41.260Z,2.57
2022-08-26T09:48:26.136Z,2.57
2022-08-26T09:51:01.621Z,2.80
2022-08-26T09:53:31.171Z,2.70
2022-08-26T09:56:31.674Z,2.77
2022-08-26T09:58:59.965Z,2.60
2022-08-26T10:04:11.022Z,2.27
2022-08-26T10:06:55.986Z,2.40
2022-08-26T10:09:24.291Z,2.60
2022-08-26T10:11:57.355Z,2.50
2022-08-26T10:14:30.035Z,2.97
2022-08-26T10:17:09.667Z,2.97
2022-08-26T10:19:55.916Z,2.83
2022-08-26T10:22:44.609Z,2.50
2022-08-26T10:25:17.447Z,3.00
2022-08-26T10:27:53.406Z,2.50
2022-08-26T10:30:24.067Z,2.70
2022-08-26T10:32:56.743Z,2.77
2022-08-26T10:35:23.338Z,2.93
2022-08-26T10:38:01.787Z,3.27
2022-08-26T10:40:40.504Z,2.77
2022-08-26T10:43:19.420Z,3.13
2022-08-26T10:45:52.311Z,2.70
2022-08-26T10:48:35.309Z,2.70
2022-08-26T10:51:04.170Z,2.60
2022-08-26T10:53:51.783Z,2.83
2022-08-26T10:56:19.207Z,2.63
2022-08-26T10:59:16.377Z,2.33
2022-08-26T11:01:43.050Z,2.30
2022-08-26T11:04:22.566Z,2.17
2022-08-26T11:06:49.757Z,2.40
2022-08-26T11:09:43.580Z,2.00
2022-08-26T11:12:37.383Z,2.20
2022-08-26T11:15:06.885Z,2.13
2022-08-26T11:17:45.262Z,2.20
2022-08-26T11:20:13.690Z,2.53
2022-08-26T11:22:48.044Z,2.47
2022-08-26T11:25:16.283Z,2.20
2022-08-26T11:27:47.804Z,2.43
2022-08-26T11:30:15.489Z,2.30
2022-08-26T11:32:55.041Z,2.07
2022-08-26T11:35:21.481Z,2.60
2022-08-26T11:37:47.958Z,2.53
2022-08-26T11:40:21.496Z,2.60
2022-08-26T11:42:53.332Z,2.33
2022-08-26T11:45:25.826Z,2.50
2022-08-26T11:47:53.211Z,2.60
2022-08-26T11:50:25.652Z,2.57
2022-08-26T11:52:54.731Z,2.57
2022-08-26T11:55:23.482Z,2.40
2022-08-26T11:57:54.752Z,2.40
2022-08-26T12:00:33.570Z,2.70
2022-08-26T12:03:02.687Z,3.17
2022-08-26T12:05:31.617Z,2.80
2022-08-26T12:08:02.849Z,2.83
2022-08-26T12:10:32.160Z,3.10
2022-08-26T12:13:00.466Z,3.22
2022-08-26T12:15:29.632Z,2.90
2022-08-26T12:20:32.893Z,3.43
2022-08-26T12:22:59.491Z,3.57
2022-08-26T12:25:26.129Z,3.77
2022-08-26T12:27:54.055Z,3.30
2022-08-26T12:30:24.618Z,4.10
2022-08-26T12:33:03.920Z,3.03
2022-08-26T12:35:51.439Z,3.83
2022-08-26T12:38:21.101Z,3.30
2022-08-26T12:40:48.296Z,2.50
2022-08-26T12:43:38.479Z,2.27
2022-08-26T12:46:06.751Z,2.23
2022-08-26T12:48:35.819Z,2.85
2022-08-26T12:51:02.918Z,2.60
2022-08-26T12:53:32.293Z,2.07
2022-08-26T12:56:04.368Z,2.57
2022-08-26T12:58:36.525Z,2.70
2022-08-26T13:01:06.000Z,2.73
2022-08-26T13:03:35.286Z,2.63
2022-08-26T13:06:29.335Z,2.57
2022-08-26T13:09:00.885Z,2.33
2022-08-26T13:11:32.109Z,2.50
2022-08-26T13:14:07.693Z,2.50
2022-08-26T13:16:35.437Z,2.47
2022-08-26T13:19:05.100Z,2.87
2022-08-26T13:21:37.314Z,3.20
2022-08-26T13:24:09.529Z,2.60
2022-08-26T13:26:36.048Z,2.77
2022-08-26T13:29:04.512Z,2.80
2022-08-26T13:31:33.741Z,2.70
2022-08-26T13:34:02.553Z,2.47
2022-08-26T13:36:29.266Z,2.50
2022-08-26T13:38:55.781Z,2.60
2022-08-26T13:41:29.417Z,2.53
2022-08-26T13:43:56.805Z,2.50
2022-08-26T13:46:26.003Z,2.42
2022-08-26T13:48:52.577Z,2.30
2022-08-26T13:51:19.513Z,2.57
2022-08-26T13:53:46.336Z,2.50
2022-08-26T13:56:12.956Z,2.53
2022-08-26T13:58:39.601Z,3.20
2022-08-26T14:01:06.953Z,2.87
2022-08-26T14:03:33.565Z,2.80
2022-08-26T14:06:00.123Z,3.23
2022-08-26T14:08:26.784Z,2.80
2022-08-26T14:10:53.269Z,2.80
2022-08-26T14:13:19.831Z,3.17
2022-08-26T14:15:46.622Z,3.17
2022-08-26T14:18:15.270Z,2.77
2022-08-26T14:20:47.257Z,3.00
2022-08-26T14:23:20.654Z,3.13
2022-08-26T14:25:47.405Z,3.00
2022-08-26T14:28:14.081Z,2.83
2022-08-26T14:30:42.439Z,3.03
2022-08-26T14:33:12.293Z,2.50
2022-08-26T14:35:39.490Z,3.00
2022-08-26T14:38:07.634Z,3.03
2022-08-26T14:40:34.330Z,3.10
2022-08-26T14:43:05.345Z,2.80
2022-08-26T14:45:33.585Z,2.97
2022-08-26T14:48:00.158Z,2.63
2022-08-26T14:50:26.863Z,2.90
2022-08-26T14:52:54.016Z,3.20
2022-08-26T14:55:20.567Z,2.90
2022-08-26T14:57:47.127Z,3.10
2022-08-26T15:00:13.740Z,3.20
2022-08-26T15:02:40.412Z,3.30
2022-08-26T15:05:07.631Z,3.03
2022-08-26T15:07:34.503Z,2.73
2022-08-26T15:10:01.201Z,3.27
2022-08-26T15:12:27.704Z,3.10
2022-08-26T15:14:54.574Z,2.90
2022-08-26T15:17:21.097Z,2.67
2022-08-26T15:19:47.670Z,3.30
2022-08-26T15:22:14.529Z,3.37
2022-08-26T15:24:41.158Z,3.50
2022-08-26T15:27:07.699Z,3.10
2022-08-26T15:29:36.359Z,3.50
2022-08-26T15:32:03.332Z,3.55
2022-08-26T15:34:29.843Z,3.23
2022-08-26T15:36:56.382Z,3.10
2022-08-26T15:39:23.008Z,3.10
2022-08-26T15:41:49.853Z,3.13
2022-08-26T15:44:16.646Z,3.20
2022-08-26T15:46:43.548Z,3.07
2022-08-26T15:49:17.826Z,2.80
2022-08-26T15:51:46.379Z,2.83
2022-08-26T15:54:13.870Z,3.30
2022-08-26T15:56:40.465Z,3.00
2022-08-26T15:59:07.406Z,2.83
2022-08-26T16:01:34.617Z,3.03
2022-08-26T16:04:01.781Z,3.20
2022-08-26T16:06:31.873Z,2.80
2022-08-26T16:08:58.774Z,3.00
2022-08-26T16:11:26.360Z,3.10
2022-08-26T16:13:52.894Z,2.30
2022-08-26T16:16:19.526Z,2.47
2022-08-26T16:18:46.138Z,2.60
2022-08-26T16:21:17.335Z,2.30
2022-08-26T16:23:45.349Z,2.00
2022-08-26T16:26:15.550Z,1.90
2022-08-26T16:28:43.616Z,1.63
2022-08-26T16:31:13.251Z,1.47
2022-08-26T16:33:39.900Z,1.53
2022-08-26T16:36:07.521Z,1.40
2022-08-26T16:38:34.949Z,1.30
2022-08-26T16:41:02.180Z,1.77
2022-08-26T16:43:28.981Z,1.40
2022-08-26T16:45:55.688Z,1.73
2022-08-26T16:48:22.531Z,1.70
2022-08-26T16:50:49.448Z,1.80
2022-08-26T16:53:16.213Z,1.80
2022-08-26T16:55:47.456Z,2.00
2022-08-26T16:58:14.145Z,1.77
2022-08-26T17:00:40.744Z,1.80
2022-08-26T17:03:07.421Z,1.50
2022-08-26T17:05:34.177Z,1.53
2022-08-26T17:08:00.750Z,1.27
2022-08-26T17:10:28.810Z,1.47
2022-08-26T17:12:58.850Z,1.50
2022-08-26T17:15:25.552Z,1.57
2022-08-26T17:17:53.624Z,1.43
2022-08-26T17:20:21.975Z,1.50
2022-08-26T17:22:49.876Z,1.47
2022-08-26T17:25:28.769Z,1.80
2022-08-26T17:30:24.831Z,1.80
2022-08-26T17:32:51.934Z,2.20
2022-08-26T17:35:19.231Z,2.20
2022-08-26T17:37:45.768Z,2.37
2022-08-26T17:40:15.636Z,2.73
2022-08-26T17:42:42.297Z,2.73
2022-08-26T17:45:09.600Z,2.50
2022-08-26T17:47:39.062Z,2.70
2022-08-26T17:50:11.010Z,2.67
2022-08-26T17:52:38.044Z,2.80
2022-08-26T17:55:09.154Z,2.30
2022-08-26T17:57:40.553Z,2.17
2022-08-26T18:00:15.886Z,2.10
2022-08-26T18:02:42.829Z,2.07
2022-08-26T18:05:11.516Z,2.13
2022-08-26T18:07:43.743Z,2.05
2022-08-26T18:10:13.282Z,2.03
2022-08-26T18:12:40.560Z,1.98
2022-08-26T18:15:07.683Z,1.93
2022-08-26T18:17:34.231Z,1.90
2022-08-26T18:20:00.833Z,1.93
2022-08-26T18:22:27.370Z,1.60
2022-08-26T18:24:58.692Z,1.50
2022-08-26T18:27:28.176Z,1.50
2022-08-26T18:29:54.913Z,1.50
2022-08-26T18:32:21.418Z,1.47
2022-08-26T18:34:47.972Z,1.80
2022-08-26T18:37:14.543Z,1.80
2022-08-26T18:39:41.340Z,1.90
2022-08-26T18:42:08.308Z,1.80
2022-08-26T18:44:34.847Z,1.80
2022-08-26T18:47:01.631Z,1.83
2022-08-26T18:49:28.139Z,1.70
2022-08-26T18:51:54.763Z,1.80
2022-08-26T18:56:53.304Z,1.57
2022-08-26T18:59:19.949Z,1.90
2022-08-26T19:01:57.653Z,1.80
2022-08-26T19:04:24.284Z,1.60
2022-08-26T19:06:51.395Z,1.53
2022-08-26T19:09:19.326Z,1.73
2022-08-26T19:11:48.827Z,1.70
2022-08-26T19:14:16.692Z,1.80
2022-08-26T19:16:45.944Z,1.80
2022-08-26T19:19:13.068Z,1.70
2022-08-26T19:21:39.854Z,1.80
2022-08-26T19:24:12.988Z,1.70
2022-08-26T19:26:39.507Z,1.60
2022-08-26T19:29:06.264Z,1.77
2022-08-26T19:31:32.871Z,2.00
2022-08-26T19:33:59.421Z,1.80
2022-08-26T19:36:27.623Z,1.80
2022-08-26T19:38:55.111Z,1.80
2022-08-26T19:41:36.680Z,2.30
2022-08-26T19:44:08.924Z,2.10
2022-08-26T19:46:36.012Z,2.23
2022-08-26T19:49:02.794Z,2.20
2022-08-26T19:51:31.189Z,2.10
2022-08-26T19:53:59.719Z,2.47
2022-08-26T19:56:27.824Z,2.40
2022-08-26T19:58:55.051Z,2.73
2022-08-26T20:01:22.389Z,2.40
2022-08-26T20:03:49.570Z,2.70
2022-08-26T20:06:17.152Z,2.33
2022-08-26T20:08:45.824Z,2.20
2022-08-26T20:11:15.415Z,2.40
2022-08-26T20:16:09.070Z,2.20
2022-08-26T20:18:35.737Z,2.90
2022-08-26T20:21:02.467Z,2.50
2022-08-26T20:23:28.951Z,2.60
2022-08-26T20:25:55.734Z,2.47
2022-08-26T20:28:22.238Z,2.50
2022-08-26T20:30:48.739Z,2.90
2022-08-26T20:33:15.276Z,2.60
2022-08-26T20:35:41.782Z,3.20
2022-08-26T20:38:08.502Z,2.77
2022-08-26T20:40:35.560Z,2.77
2022-08-26T20:43:02.173Z,2.30
2022-08-26T20:45:29.238Z,2.40
2022-08-26T20:47:55.803Z,2.60
2022-08-26T20:50:22.350Z,3.90
2022-08-26T20:52:48.897Z,3.10
2022-08-26T20:55:15.448Z,2.17
2022-08-26T20:57:41.967Z,2.20
2022-08-26T21:00:09.340Z,2.00
2022-08-26T21:02:39.768Z,2.20
2022-08-26T21:05:06.890Z,2.53
2022-08-26T21:07:35.578Z,2.10
2022-08-26T21:10:02.792Z,3.20
2022-08-26T21:12:29.641Z,2.40
2022-08-26T21:14:56.235Z,3.03
2022-08-26T21:17:25.341Z,3.03
2022-08-26T21:19:51.830Z,2.83
2022-08-26T21:22:19.393Z,3.60
2022-08-26T21:24:46.132Z,2.47
2022-08-26T21:27:12.912Z,3.30
2022-08-26T21:29:50.717Z,3.27
2022-08-26T21:32:18.569Z,3.13
2022-08-26T21:34:45.113Z,3.10
2022-08-26T21:37:15.423Z,3.10
2022-08-26T21:39:43.212Z,3.60
2022-08-26T21:42:09.831Z,3.10
2022-08-26T21:44:36.351Z,2.60
2022-08-26T21:47:03.248Z,2.70
2022-08-26T21:49:29.819Z,3.33
2022-08-26T21:51:56.723Z,2.87
2022-08-26T21:54:23.524Z,3.57
2022-08-26T21:56:50.377Z,3.70
2022-08-26T21:59:18.697Z,3.07
2022-08-26T22:01:45.579Z,3.53
2022-08-26T22:04:12.357Z,3.30
2022-08-26T22:06:42.698Z,2.97
2022-08-26T22:09:10.030Z,2.80
2022-08-26T22:11:36.669Z,4.33
2022-08-26T22:14:03.208Z,3.80
2022-08-26T22:16:29.793Z,3.20
2022-08-26T22:18:57.188Z,3.63
2022-08-26T22:21:25.788Z,3.60
2022-08-26T22:23:52.558Z,3.10
2022-08-26T22:26:26.758Z,3.73
2022-08-26T22:28:59.070Z,3.73
2022-08-26T22:31:38.388Z,4.00
2022-08-26T22:34:12.855Z,3.63
2022-08-26T22:36:43.560Z,3.77
2022-08-26T22:39:11.776Z,3.60
2022-08-26T22:41:38.268Z,3.20
2022-08-26T22:44:05.608Z,3.40
2022-08-26T22:46:32.091Z,3.40
2022-08-26T22:48:59.078Z,3.13
2022-08-26T22:51:25.866Z,3.40
2022-08-26T22:53:52.381Z,3.30
2022-08-26T22:56:18.897Z,3.30
2022-08-26T22:58:45.436Z,3.63
2022-08-26T23:01:11.998Z,4.30
2022-08-26T23:03:41.920Z,4.10
2022-08-26T23:06:09.400Z,3.87
2022-08-26T23:08:36.876Z,4.13
2022-08-26T23:11:07.663Z,3.70
2022-08-26T23:13:34.155Z,4.30
2022-08-26T23:16:07.176Z,4.17
2022-08-26T23:18:33.839Z,4.83
2022-08-26T23:21:00.435Z,4.17
2022-08-26T23:23:26.961Z,4.57
2022-08-26T23:25:55.232Z,4.20
2022-08-26T23:28:22.029Z,4.43
2022-08-26T23:30:48.785Z,4.33
2022-08-26T23:33:15.571Z,4.47
2022-08-26T23:35:42.259Z,4.97
2022-08-26T23:38:08.785Z,4.53
2022-08-26T23:40:36.865Z,4.57
2022-08-26T23:43:05.589Z,4.47
2022-08-26T23:45:33.184Z,4.23
2022-08-26T23:48:00.289Z,4.60
2022-08-26T23:50:29.761Z,4.37
2022-08-26T23:52:56.298Z,4.55
2022-08-26T23:55:23.163Z,4.67
2022-08-26T23:57:50.236Z,5.20
